createdAt,value
2018-06-02T00:00:12.130Z,0.00
2018-06-02T00:02:04.931Z,0.00
2018-06-02T00:03:04.864Z,0.00
2018-06-02T00:04:57.640Z,0.00
2018-06-02T00:05:57.575Z,0.00
2018-06-02T00:07:50.338Z,0.00
2018-06-02T00:08:50.277Z,0.00
2018-06-02T00:10:43.070Z,0.00
2018-06-02T00:11:42.998Z,0.00
2018-06-02T00:13:35.800Z,0.00
2018-06-02T00:14:35.719Z,0.00
2018-06-02T00:16:28.482Z,0.00
2018-06-02T00:17:28.424Z,0.00
2018-06-02T00:19:21.207Z,0.00
2018-06-02T00:20:21.165Z,0.00
2018-06-02T00:22:13.907Z,0.00
2018-06-02T00:23:13.859Z,0.00
2018-06-02T00:25:06.630Z,0.00
2018-06-02T00:26:06.563Z,0.00
2018-06-02T00:27:59.349Z,0.00
2018-06-02T00:28:59.286Z,0.00
2018-06-02T00:30:52.071Z,0.00
2018-06-02T00:31:52.003Z,0.00
2018-06-02T00:33:44.799Z,0.00
2018-06-02T00:34:44.709Z,0.00
2018-06-02T00:36:37.496Z,0.00
2018-06-02T00:37:37.436Z,0.00
2018-06-02T00:39:30.213Z,0.00
2018-06-02T00:40:30.139Z,0.00
2018-06-02T00:42:22.920Z,0.00
2018-06-02T00:43:22.854Z,0.00
2018-06-02T00:45:15.748Z,0.00
2018-06-02T00:46:15.681Z,0.00
2018-06-02T00:48:08.446Z,0.00
2018-06-02T00:49:08.381Z,0.00
2018-06-02T00:51:01.158Z,0.00
2018-06-02T00:52:01.094Z,0.00
2018-06-02T00:53:53.904Z,0.00
2018-06-02T00:54:53.801Z,0.00
2018-06-02T00:56:46.584Z,0.00
2018-06-02T00:57:46.513Z,0.00
2018-06-02T00:59:39.310Z,0.00
2018-06-02T01:00:39.237Z,0.00
2018-06-02T01:02:32.040Z,0.00
2018-06-02T01:03:31.982Z,0.00
2018-06-02T01:05:24.754Z,0.00
2018-06-02T01:06:24.691Z,0.00
2018-06-02T01:08:17.452Z,0.00
2018-06-02T01:09:17.399Z,0.00
2018-06-02T01:11:10.198Z,0.00
2018-06-02T01:12:10.130Z,0.00
2018-06-02T01:14:02.900Z,0.00
2018-06-02T01:15:02.857Z,0.00
2018-06-02T01:16:55.625Z,0.00
2018-06-02T01:17:55.558Z,0.00
2018-06-02T01:19:48.358Z,0.00
2018-06-02T01:20:48.313Z,0.00
2018-06-02T01:22:41.090Z,0.00
2018-06-02T01:23:41.074Z,0.00
2018-06-02T01:25:33.813Z,0.00
2018-06-02T01:26:33.735Z,0.00
2018-06-02T01:28:26.512Z,0.00
2018-06-02T01:29:26.440Z,0.00
2018-06-02T01:31:19.247Z,0.00
2018-06-02T01:32:19.178Z,0.00
2018-06-02T01:34:11.939Z,0.00
2018-06-02T01:35:11.878Z,0.00
2018-06-02T01:37:04.669Z,0.00
2018-06-02T01:38:04.597Z,0.00
2018-06-02T01:39:57.401Z,0.00
2018-06-02T01:40:57.321Z,0.00
2018-06-02T01:42:50.085Z,0.00
2018-06-02T01:43:50.026Z,0.00
2018-06-02T01:45:42.828Z,0.00
2018-06-02T01:46:42.756Z,0.00
2018-06-02T01:48:35.529Z,0.00
2018-06-02T01:49:35.466Z,0.00
2018-06-02T01:51:28.281Z,0.00
2018-06-02T01:52:28.212Z,0.00
2018-06-02T01:54:20.978Z,0.00
2018-06-02T01:55:20.918Z,0.00
2018-06-02T01:57:13.702Z,0.00
2018-06-02T01:58:13.635Z,0.00
2018-06-02T02:00:06.424Z,0.00
2018-06-02T02:01:06.362Z,0.00
2018-06-02T02:02:59.176Z,0.00
2018-06-02T02:03:59.110Z,0.00
2018-06-02T02:05:51.884Z,0.00
2018-06-02T02:06:51.817Z,0.00
2018-06-02T02:08:44.600Z,0.00
2018-06-02T02:09:44.525Z,0.00
2018-06-02T02:11:37.330Z,0.00
2018-06-02T02:12:37.255Z,0.00
2018-06-02T02:14:30.065Z,0.00
2018-06-02T02:15:29.999Z,0.00
2018-06-02T02:17:22.778Z,0.00
2018-06-02T02:18:22.706Z,0.00
2018-06-02T02:20:15.496Z,0.00
2018-06-02T02:21:15.435Z,4.00
2018-06-02T02:23:08.233Z,4.00
2018-06-02T02:24:08.148Z,0.00
2018-06-02T02:26:00.938Z,0.00
2018-06-02T02:27:00.859Z,4.00
2018-06-02T02:28:53.623Z,0.00
2018-06-02T02:29:53.563Z,4.00
2018-06-02T02:31:46.362Z,4.00
2018-06-02T02:32:46.295Z,4.00
2018-06-02T02:34:39.055Z,8.00
2018-06-02T02:35:38.998Z,4.00
2018-06-02T02:37:31.783Z,8.00
2018-06-02T02:38:31.714Z,8.00
2018-06-02T02:40:24.526Z,12.00
2018-06-02T02:41:24.470Z,12.00
2018-06-02T02:43:17.291Z,12.00
2018-06-02T02:44:17.222Z,12.00
2018-06-02T02:46:10.006Z,16.00
2018-06-02T02:47:09.939Z,16.00
2018-06-02T02:49:02.697Z,20.00
2018-06-02T02:50:02.641Z,24.00
2018-06-02T02:51:55.444Z,24.00
2018-06-02T02:52:55.363Z,28.00
2018-06-02T02:54:48.147Z,28.00
2018-06-02T02:55:48.088Z,32.00
2018-06-02T02:57:40.870Z,32.00
2018-06-02T02:58:40.798Z,36.00
2018-06-02T03:00:33.570Z,40.00
2018-06-02T03:01:33.511Z,44.00
2018-06-02T03:03:26.914Z,48.00
2018-06-02T03:04:26.254Z,48.00
2018-06-02T03:06:19.020Z,48.00
2018-06-02T03:07:18.963Z,48.00
2018-06-02T03:09:11.765Z,52.00
2018-06-02T03:10:11.701Z,60.00
2018-06-02T03:12:04.480Z,60.00
2018-06-02T03:13:04.421Z,60.00
2018-06-02T03:14:57.182Z,64.00
2018-06-02T03:15:57.127Z,68.00
2018-06-02T03:17:49.898Z,68.00
2018-06-02T03:18:49.827Z,68.00
2018-06-02T03:20:42.610Z,72.00
2018-06-02T03:21:42.541Z,72.00
2018-06-02T03:23:35.356Z,72.00
2018-06-02T03:24:35.293Z,76.00
2018-06-02T03:26:28.102Z,76.00
2018-06-02T03:27:28.044Z,80.00
2018-06-02T03:29:20.862Z,92.00
2018-06-02T03:30:20.789Z,96.00
2018-06-02T03:32:13.582Z,100.00
2018-06-02T03:33:13.495Z,104.00
2018-06-02T03:35:06.304Z,112.00
2018-06-02T03:36:06.242Z,120.00
2018-06-02T03:37:59.640Z,128.00
2018-06-02T03:38:58.984Z,136.00
2018-06-02T03:40:51.754Z,144.00
2018-06-02T03:41:51.701Z,148.00
2018-06-02T03:43:44.512Z,156.00
2018-06-02T03:44:44.428Z,156.00
2018-06-02T03:46:37.178Z,164.00
2018-06-02T03:47:37.117Z,168.00
2018-06-02T03:49:29.900Z,188.00
2018-06-02T03:50:29.831Z,196.00
2018-06-02T03:52:22.654Z,216.00
2018-06-02T03:53:22.579Z,232.00
2018-06-02T03:55:15.343Z,256.00
2018-06-02T03:56:15.280Z,268.00
2018-06-02T03:58:08.068Z,292.00
2018-06-02T03:59:08.001Z,304.00
2018-06-02T04:01:00.889Z,328.00
2018-06-02T04:02:00.721Z,340.00
2018-06-02T04:03:53.501Z,364.00
2018-06-02T04:04:53.445Z,380.00
2018-06-02T04:06:46.213Z,404.00
2018-06-02T04:07:46.149Z,420.00
2018-06-02T04:09:38.928Z,444.00
2018-06-02T04:10:38.857Z,452.00
2018-06-02T04:12:31.627Z,476.00
2018-06-02T04:13:31.565Z,488.00
2018-06-02T04:15:24.367Z,504.00
2018-06-02T04:16:24.301Z,512.00
2018-06-02T04:18:17.081Z,524.00
2018-06-02T04:19:17.019Z,524.00
2018-06-02T04:21:09.787Z,536.00
2018-06-02T04:22:09.732Z,540.00
2018-06-02T04:24:02.511Z,556.00
2018-06-02T04:25:02.439Z,564.00
2018-06-02T04:26:55.217Z,580.00
2018-06-02T04:27:55.153Z,592.00
2018-06-02T04:29:47.942Z,608.00
2018-06-02T04:30:47.875Z,616.00
2018-06-02T04:32:40.653Z,636.00
2018-06-02T04:33:40.591Z,648.00
2018-06-02T04:35:33.369Z,664.00
2018-06-02T04:36:33.299Z,676.00
2018-06-02T04:38:26.087Z,688.00
2018-06-02T04:39:26.015Z,696.00
2018-06-02T04:41:18.787Z,716.00
2018-06-02T04:42:18.728Z,724.00
2018-06-02T04:44:11.513Z,752.00
2018-06-02T04:45:11.444Z,768.00
2018-06-02T04:47:04.206Z,784.00
2018-06-02T04:48:04.148Z,792.00
2018-06-02T04:49:56.974Z,812.00
2018-06-02T04:50:56.878Z,824.00
2018-06-02T04:52:49.651Z,852.00
2018-06-02T04:53:49.591Z,868.00
2018-06-02T04:55:42.390Z,892.00
2018-06-02T04:56:42.324Z,904.00
2018-06-02T04:58:35.176Z,916.00
2018-06-02T04:59:35.029Z,920.00
2018-06-02T05:01:27.798Z,932.00
2018-06-02T05:02:27.739Z,936.00
2018-06-02T05:04:20.548Z,936.00
2018-06-02T05:05:20.475Z,932.00
2018-06-02T05:07:13.246Z,928.00
2018-06-02T05:08:13.187Z,920.00
2018-06-02T05:10:05.961Z,916.00
2018-06-02T05:11:05.888Z,920.00
2018-06-02T05:12:58.656Z,932.00
2018-06-02T05:13:58.598Z,940.00
2018-06-02T05:15:51.387Z,956.00
2018-06-02T05:16:51.317Z,964.00
2018-06-02T05:18:44.086Z,980.00
2018-06-02T05:19:44.021Z,988.00
2018-06-02T05:21:36.811Z,1000.00
2018-06-02T05:22:36.740Z,1004.00
2018-06-02T05:24:29.534Z,996.00
2018-06-02T05:25:29.459Z,992.00
2018-06-02T05:27:22.230Z,992.00
2018-06-02T05:28:22.171Z,1000.00
2018-06-02T05:30:15.007Z,1016.00
2018-06-02T05:31:14.943Z,1060.00
2018-06-02T05:33:07.717Z,1056.00
2018-06-02T05:34:07.653Z,1068.00
2018-06-02T05:36:00.433Z,1088.00
2018-06-02T05:37:00.360Z,1096.00
2018-06-02T05:38:53.128Z,1112.00
2018-06-02T05:39:53.067Z,1112.00
2018-06-02T05:41:45.855Z,1128.00
2018-06-02T05:42:45.818Z,1140.00
2018-06-02T05:44:38.567Z,1156.00
2018-06-02T05:45:38.496Z,1164.00
2018-06-02T05:47:31.275Z,1192.00
2018-06-02T05:48:31.213Z,1220.00
2018-06-02T05:50:24.001Z,1288.00
2018-06-02T05:51:23.934Z,1324.00
2018-06-02T05:53:16.714Z,1384.00
2018-06-02T05:54:16.648Z,1392.00
2018-06-02T05:56:09.427Z,1404.00
2018-06-02T05:57:09.350Z,1408.00
2018-06-02T05:59:02.159Z,1412.00
2018-06-02T06:00:02.096Z,1416.00
2018-06-02T06:01:54.876Z,1440.00
2018-06-02T06:02:54.804Z,1444.00
2018-06-02T06:04:47.582Z,1464.00
2018-06-02T06:05:47.509Z,1472.00
2018-06-02T06:07:40.292Z,1456.00
2018-06-02T06:08:40.229Z,1452.00
2018-06-02T06:10:33.032Z,1452.00
2018-06-02T06:11:32.960Z,1452.00
2018-06-02T06:13:25.738Z,1492.00
2018-06-02T06:14:25.689Z,1504.00
2018-06-02T06:16:18.458Z,1536.00
2018-06-02T06:17:18.388Z,1560.00
2018-06-02T06:19:11.191Z,1596.00
2018-06-02T06:20:11.135Z,1600.00
2018-06-02T06:22:03.907Z,1648.00
2018-06-02T06:23:03.840Z,1652.00
2018-06-02T06:24:56.646Z,1656.00
2018-06-02T06:25:56.562Z,1652.00
2018-06-02T06:27:49.344Z,1648.00
2018-06-02T06:28:49.282Z,1664.00
2018-06-02T06:30:42.095Z,1692.00
2018-06-02T06:31:42.028Z,1704.00
2018-06-02T06:33:34.791Z,1772.00
2018-06-02T06:34:34.733Z,1808.00
2018-06-02T06:36:27.550Z,1892.00
2018-06-02T06:37:27.481Z,1964.00
2018-06-02T06:39:20.236Z,1972.00
2018-06-02T06:40:20.173Z,2036.00
2018-06-02T06:42:12.996Z,2080.00
2018-06-02T06:43:12.926Z,2112.00
2018-06-02T06:45:05.736Z,2084.00
2018-06-02T06:46:05.677Z,2244.00
2018-06-02T06:47:58.483Z,2328.00
2018-06-02T06:48:58.414Z,2396.00
2018-06-02T06:50:51.187Z,2312.00
2018-06-02T06:51:51.122Z,2480.00
2018-06-02T06:53:43.922Z,2548.00
2018-06-02T06:54:43.861Z,2608.00
2018-06-02T06:56:36.636Z,2604.00
2018-06-02T06:57:36.567Z,2796.00
2018-06-02T06:59:29.458Z,2884.00
2018-06-02T07:00:29.281Z,2980.00
2018-06-02T07:02:22.085Z,3128.00
2018-06-02T07:03:22.015Z,3116.00
2018-06-02T07:05:14.787Z,3080.00
2018-06-02T07:06:14.724Z,3256.00
2018-06-02T07:08:07.535Z,3524.00
2018-06-02T07:09:07.462Z,3628.00
2018-06-02T07:11:00.281Z,3824.00
2018-06-02T07:12:00.226Z,3932.00
2018-06-02T07:13:53.004Z,3932.00
2018-06-02T07:14:52.928Z,4060.00
2018-06-02T07:16:45.728Z,4212.00
2018-06-02T07:17:45.691Z,4240.00
2018-06-02T07:19:38.433Z,4360.00
2018-06-02T07:20:38.376Z,4344.00
2018-06-02T07:22:31.207Z,4496.00
2018-06-02T07:23:31.123Z,4632.00
2018-06-02T07:25:23.943Z,5416.00
2018-06-02T07:26:23.887Z,5120.00
2018-06-02T07:28:16.678Z,4928.00
2018-06-02T07:29:16.612Z,5476.00
2018-06-02T07:31:09.461Z,5704.00
2018-06-02T07:32:09.351Z,7732.00
2018-06-02T07:34:02.161Z,6516.00
2018-06-02T07:35:02.111Z,10988.00
2018-06-02T07:36:54.885Z,8216.00
2018-06-02T07:37:54.815Z,7336.00
2018-06-02T07:39:47.646Z,6888.00
2018-06-02T07:40:47.573Z,7172.00
2018-06-02T07:42:40.372Z,8672.00
2018-06-02T07:43:40.304Z,9016.00
2018-06-02T07:45:33.106Z,13096.00
2018-06-02T07:46:33.052Z,13064.00
2018-06-02T07:48:25.853Z,11980.00
2018-06-02T07:49:25.796Z,13340.00
2018-06-02T07:51:18.582Z,11964.00
2018-06-02T07:52:18.528Z,9460.00
2018-06-02T07:54:11.346Z,13856.00
2018-06-02T07:55:11.337Z,7488.00
2018-06-02T07:57:04.056Z,8700.00
2018-06-02T07:58:03.986Z,7180.00
2018-06-02T07:59:56.784Z,10016.00
2018-06-02T08:00:56.724Z,9204.00
2018-06-02T08:02:49.567Z,10804.00
2018-06-02T08:03:49.494Z,8220.00
2018-06-02T08:05:42.281Z,7740.00
2018-06-02T08:06:42.226Z,7072.00
2018-06-02T08:08:35.041Z,10928.00
2018-06-02T08:09:34.970Z,8872.00
2018-06-02T08:11:27.767Z,7368.00
2018-06-02T08:12:27.714Z,5940.00
2018-06-02T08:14:20.517Z,14144.00
2018-06-02T08:15:20.458Z,9688.00
2018-06-02T08:17:13.244Z,12336.00
2018-06-02T08:18:13.180Z,10824.00
2018-06-02T08:20:06.015Z,12344.00
2018-06-02T08:21:05.951Z,10416.00
2018-06-02T08:22:58.757Z,9244.00
2018-06-02T08:23:58.699Z,7192.00
2018-06-02T08:25:51.501Z,8316.00
2018-06-02T08:26:51.438Z,10520.00
2018-06-02T08:28:44.249Z,6480.00
2018-06-02T08:29:44.187Z,13536.00
2018-06-02T08:31:36.988Z,11672.00
2018-06-02T08:32:36.933Z,7332.00
2018-06-02T08:34:29.740Z,5940.00
2018-06-02T08:35:29.672Z,8732.00
2018-06-02T08:37:22.523Z,5848.00
2018-06-02T08:38:22.477Z,11288.00
2018-06-02T08:40:15.265Z,11784.00
2018-06-02T08:41:15.207Z,7408.00
2018-06-02T08:43:08.011Z,5620.00
2018-06-02T08:44:07.946Z,5592.00
2018-06-02T08:46:00.739Z,6072.00
2018-06-02T08:47:00.683Z,7932.00
2018-06-02T08:48:53.502Z,6448.00
2018-06-02T08:49:53.429Z,10532.00
2018-06-02T08:51:46.236Z,5340.00
2018-06-02T08:52:46.179Z,4928.00
2018-06-02T08:54:39.043Z,6012.00
2018-06-02T08:55:38.976Z,8076.00
2018-06-02T08:57:31.777Z,4980.00
2018-06-02T08:58:31.730Z,4976.00
2018-06-02T09:00:24.565Z,8152.00
2018-06-02T09:01:24.493Z,7264.00
2018-06-02T09:03:17.345Z,4484.00
2018-06-02T09:04:17.228Z,4916.00
2018-06-02T09:06:10.003Z,6608.00
2018-06-02T09:07:09.956Z,5944.00
2018-06-02T09:09:02.749Z,6520.00
2018-06-02T09:10:02.680Z,5676.00
2018-06-02T09:11:55.480Z,4020.00
2018-06-02T09:12:55.426Z,4284.00
2018-06-02T09:14:48.224Z,4592.00
2018-06-02T09:15:48.155Z,4680.00
2018-06-02T09:17:40.939Z,5128.00
2018-06-02T09:18:40.883Z,5296.00
2018-06-02T09:20:33.705Z,5340.00
2018-06-02T09:21:33.653Z,4940.00
2018-06-02T09:23:26.426Z,4664.00
2018-06-02T09:24:26.360Z,4284.00
2018-06-02T09:26:19.144Z,3356.00
2018-06-02T09:27:19.124Z,3060.00
2018-06-02T09:29:11.891Z,3032.00
2018-06-02T09:30:11.819Z,3008.00
2018-06-02T09:32:04.595Z,3344.00
2018-06-02T09:33:04.613Z,3624.00
2018-06-02T09:34:57.335Z,3588.00
2018-06-02T09:35:57.257Z,3532.00
2018-06-02T09:37:50.052Z,3848.00
2018-06-02T09:38:50.004Z,4184.00
2018-06-02T09:40:42.789Z,4364.00
2018-06-02T09:41:42.724Z,4392.00
2018-06-02T09:43:35.602Z,4372.00
2018-06-02T09:44:35.468Z,4280.00
2018-06-02T09:46:28.254Z,4180.00
2018-06-02T09:47:28.196Z,4136.00
2018-06-02T09:49:20.996Z,3896.00
2018-06-02T09:50:20.934Z,3880.00
2018-06-02T09:52:13.711Z,3904.00
2018-06-02T09:53:13.656Z,3976.00
2018-06-02T09:55:06.443Z,4048.00
2018-06-02T09:56:06.372Z,4068.00
2018-06-02T09:57:59.181Z,3848.00
2018-06-02T09:58:59.129Z,3740.00
2018-06-02T10:00:51.923Z,3340.00
2018-06-02T10:01:51.862Z,2860.00
2018-06-02T10:03:44.668Z,2532.00
2018-06-02T10:04:44.640Z,2596.00
2018-06-02T10:06:37.374Z,2148.00
2018-06-02T10:07:37.324Z,2112.00
2018-06-02T10:09:30.112Z,2180.00
2018-06-02T10:10:30.048Z,2188.00
2018-06-02T10:12:22.829Z,2312.00
2018-06-02T10:13:22.763Z,2444.00
2018-06-02T10:15:15.583Z,2608.00
2018-06-02T10:16:15.513Z,2584.00
2018-06-02T10:18:08.281Z,2728.00
2018-06-02T10:19:08.230Z,2968.00
2018-06-02T10:21:01.022Z,3316.00
2018-06-02T10:22:00.953Z,3560.00
2018-06-02T10:23:53.737Z,4020.00
2018-06-02T10:24:53.676Z,4248.00
2018-06-02T10:26:46.462Z,4644.00
2018-06-02T10:27:46.398Z,4808.00
2018-06-02T10:29:39.224Z,5500.00
2018-06-02T10:30:39.171Z,6416.00
2018-06-02T10:32:31.918Z,7292.00
2018-06-02T10:33:31.863Z,7408.00
2018-06-02T10:35:24.686Z,7920.00
2018-06-02T10:36:24.577Z,8668.00
2018-06-02T10:38:17.374Z,9744.00
2018-06-02T10:39:17.351Z,10596.00
2018-06-02T10:41:10.105Z,12944.00
2018-06-02T10:42:10.043Z,15296.00
2018-06-02T10:44:02.829Z,20192.00
2018-06-02T10:45:02.771Z,21504.00
2018-06-02T10:46:55.558Z,21120.00
2018-06-02T10:47:55.486Z,17312.00
2018-06-02T10:49:48.282Z,8424.00
2018-06-02T10:50:48.213Z,6140.00
2018-06-02T10:52:40.992Z,14336.00
2018-06-02T10:53:40.981Z,7348.00
2018-06-02T10:55:33.727Z,5552.00
2018-06-02T10:56:33.671Z,14304.00
2018-06-02T10:58:26.494Z,13152.00
2018-06-02T10:59:26.394Z,12948.00
2018-06-02T11:01:19.195Z,16128.00
2018-06-02T11:02:19.129Z,18784.00
2018-06-02T11:04:11.923Z,18400.00
2018-06-02T11:05:11.863Z,17888.00
2018-06-02T11:07:04.713Z,10864.00
2018-06-02T11:08:04.594Z,10300.00
2018-06-02T11:09:57.397Z,10012.00
2018-06-02T11:10:57.312Z,10144.00
2018-06-02T11:12:50.092Z,9564.00
2018-06-02T11:13:50.037Z,9184.00
2018-06-02T11:15:42.842Z,8448.00
2018-06-02T11:16:42.792Z,6800.00
2018-06-02T11:18:35.569Z,7580.00
2018-06-02T11:19:35.512Z,8940.00
2018-06-02T11:21:28.294Z,9352.00
2018-06-02T11:22:28.230Z,9492.00
2018-06-02T11:24:21.018Z,14628.00
2018-06-02T11:25:20.968Z,10772.00
2018-06-02T11:27:13.817Z,8444.00
2018-06-02T11:28:13.753Z,8424.00
2018-06-02T11:30:06.592Z,8472.00
2018-06-02T11:31:06.539Z,8352.00
2018-06-02T11:32:59.331Z,8320.00
2018-06-02T11:33:59.272Z,8212.00
2018-06-02T11:35:52.081Z,7320.00
2018-06-02T11:36:52.003Z,7740.00
2018-06-02T11:38:44.792Z,8088.00
2018-06-02T11:39:44.744Z,8140.00
2018-06-02T11:41:37.540Z,9148.00
2018-06-02T11:42:37.484Z,10500.00
2018-06-02T11:44:30.273Z,7776.00
2018-06-02T11:45:30.224Z,7804.00
2018-06-02T11:47:23.037Z,6456.00
2018-06-02T11:48:22.975Z,6268.00
2018-06-02T11:50:15.784Z,5700.00
2018-06-02T11:51:15.743Z,6180.00
2018-06-02T11:53:08.559Z,7124.00
2018-06-02T11:54:08.472Z,5852.00
2018-06-02T11:56:01.285Z,4496.00
2018-06-02T11:57:01.214Z,4960.00
2018-06-02T11:58:54.016Z,4060.00
2018-06-02T11:59:53.962Z,4852.00
2018-06-02T12:01:46.768Z,5724.00
2018-06-02T12:02:46.705Z,5836.00
2018-06-02T12:04:39.519Z,5340.00
2018-06-02T12:05:39.453Z,5136.00
2018-06-02T12:07:32.267Z,4564.00
2018-06-02T12:08:32.203Z,4224.00
2018-06-02T12:10:24.993Z,4872.00
2018-06-02T12:11:24.936Z,5528.00
2018-06-02T12:13:17.735Z,5720.00
2018-06-02T12:14:17.669Z,5944.00
2018-06-02T12:16:10.483Z,6176.00
2018-06-02T12:17:10.413Z,6216.00
2018-06-02T12:19:03.374Z,6528.00
2018-06-02T12:20:03.145Z,6388.00
2018-06-02T12:21:56.077Z,6056.00
2018-06-02T12:22:55.940Z,5644.00
2018-06-02T12:24:48.717Z,4856.00
2018-06-02T12:25:48.620Z,5264.00
2018-06-02T12:27:41.414Z,5336.00
2018-06-02T12:28:41.354Z,5228.00
2018-06-02T12:30:34.149Z,5120.00
2018-06-02T12:31:34.092Z,5088.00
2018-06-02T12:33:26.886Z,5036.00
2018-06-02T12:34:26.821Z,5060.00
2018-06-02T12:36:19.679Z,5152.00
2018-06-02T12:37:19.559Z,5480.00
2018-06-02T12:39:12.358Z,5220.00
2018-06-02T12:40:12.346Z,4916.00
2018-06-02T12:42:05.118Z,4600.00
2018-06-02T12:43:05.044Z,4748.00
2018-06-02T12:44:57.829Z,5180.00
2018-06-02T12:45:57.765Z,5108.00
2018-06-02T12:47:50.571Z,5672.00
2018-06-02T12:48:50.525Z,5368.00
2018-06-02T12:50:43.313Z,5632.00
2018-06-02T12:51:43.236Z,5904.00
2018-06-02T12:53:36.064Z,5504.00
2018-06-02T12:54:35.994Z,5440.00
2018-06-02T12:56:28.756Z,5872.00
2018-06-02T12:57:28.694Z,6024.00
2018-06-02T12:59:21.506Z,6072.00
2018-06-02T13:00:21.421Z,5988.00
2018-06-02T13:02:14.295Z,5488.00
2018-06-02T13:03:14.223Z,5276.00
2018-06-02T13:05:07.017Z,4668.00
2018-06-02T13:06:06.945Z,4380.00
2018-06-02T13:07:59.749Z,4428.00
2018-06-02T13:08:59.687Z,4300.00
2018-06-02T13:10:52.582Z,3708.00
2018-06-02T13:11:52.423Z,3404.00
2018-06-02T13:13:45.254Z,3324.00
2018-06-02T13:14:45.177Z,3456.00
2018-06-02T13:16:37.964Z,3880.00
2018-06-02T13:17:37.912Z,3600.00
2018-06-02T13:19:30.767Z,3244.00
2018-06-02T13:20:30.645Z,3508.00
2018-06-02T13:22:23.445Z,3880.00
2018-06-02T13:23:23.379Z,3952.00
2018-06-02T13:25:16.159Z,3944.00
2018-06-02T13:26:16.106Z,3796.00
2018-06-02T13:28:08.909Z,3744.00
2018-06-02T13:29:08.834Z,3796.00
2018-06-02T13:31:01.621Z,3392.00
2018-06-02T13:32:01.565Z,3108.00
2018-06-02T13:33:54.369Z,2760.00
2018-06-02T13:34:54.296Z,2804.00
2018-06-02T13:36:47.075Z,2436.00
2018-06-02T13:37:47.017Z,2596.00
2018-06-02T13:39:39.815Z,2860.00
2018-06-02T13:40:39.746Z,2968.00
2018-06-02T13:42:32.571Z,3080.00
2018-06-02T13:43:32.490Z,3136.00
2018-06-02T13:45:25.286Z,3500.00
2018-06-02T13:46:25.235Z,3256.00
2018-06-02T13:48:18.016Z,3064.00
2018-06-02T13:49:17.951Z,2900.00
2018-06-02T13:51:10.751Z,3016.00
2018-06-02T13:52:10.663Z,3556.00
2018-06-02T13:54:03.462Z,4040.00
2018-06-02T13:55:03.396Z,4192.00
2018-06-02T13:56:56.178Z,3896.00
2018-06-02T13:57:56.125Z,3668.00
2018-06-02T13:59:48.918Z,3668.00
2018-06-02T14:00:48.840Z,3572.00
2018-06-02T14:02:41.631Z,3084.00
2018-06-02T14:03:41.590Z,3240.00
2018-06-02T14:05:34.365Z,3488.00
2018-06-02T14:06:34.295Z,3588.00
2018-06-02T14:08:27.087Z,3856.00
2018-06-02T14:09:27.017Z,3832.00
2018-06-02T14:11:19.809Z,3888.00
2018-06-02T14:12:19.746Z,3696.00
2018-06-02T14:14:12.535Z,3580.00
2018-06-02T14:15:12.465Z,3480.00
2018-06-02T14:17:05.242Z,3544.00
2018-06-02T14:18:05.195Z,4116.00
2018-06-02T14:19:57.982Z,4388.00
2018-06-02T14:20:57.918Z,3960.00
2018-06-02T14:22:50.714Z,3772.00
2018-06-02T14:23:50.655Z,3668.00
2018-06-02T14:25:43.456Z,3692.00
2018-06-02T14:26:43.391Z,4080.00
2018-06-02T14:28:36.190Z,4160.00
2018-06-02T14:29:36.182Z,4252.00
2018-06-02T14:31:28.910Z,4304.00
2018-06-02T14:32:28.856Z,4224.00
2018-06-02T14:34:21.658Z,3740.00
2018-06-02T14:35:21.591Z,3592.00
2018-06-02T14:37:14.393Z,3184.00
2018-06-02T14:38:14.405Z,3052.00
2018-06-02T14:40:07.146Z,2968.00
2018-06-02T14:41:07.073Z,2904.00
2018-06-02T14:42:59.864Z,2752.00
2018-06-02T14:43:59.815Z,2708.00
2018-06-02T14:45:52.615Z,2720.00
2018-06-02T14:46:52.547Z,2704.00
2018-06-02T14:48:45.363Z,2684.00
2018-06-02T14:49:45.285Z,2640.00
2018-06-02T14:51:38.087Z,2908.00
2018-06-02T14:52:38.032Z,2972.00
2018-06-02T14:54:31.073Z,2792.00
2018-06-02T14:55:30.759Z,2768.00
2018-06-02T14:57:23.549Z,2912.00
2018-06-02T14:58:23.497Z,2884.00
2018-06-02T15:00:16.312Z,3116.00
2018-06-02T15:01:16.231Z,3088.00
2018-06-02T15:03:09.007Z,2940.00
2018-06-02T15:04:08.972Z,2928.00
2018-06-02T15:06:01.755Z,2812.00
2018-06-02T15:07:01.683Z,2832.00
2018-06-02T15:08:54.463Z,2660.00
2018-06-02T15:09:54.393Z,2636.00
2018-06-02T15:11:47.212Z,2720.00
2018-06-02T15:12:47.129Z,2760.00
2018-06-02T15:14:39.919Z,2996.00
2018-06-02T15:15:39.849Z,2952.00
2018-06-02T15:17:32.623Z,2752.00
2018-06-02T15:18:32.560Z,2720.00
2018-06-02T15:20:25.375Z,2832.00
2018-06-02T15:21:25.301Z,2880.00
2018-06-02T15:23:18.089Z,2984.00
2018-06-02T15:24:18.031Z,2940.00
2018-06-02T15:26:10.830Z,2956.00
2018-06-02T15:27:10.760Z,2908.00
2018-06-02T15:29:03.544Z,2776.00
2018-06-02T15:30:03.492Z,2708.00
2018-06-02T15:31:56.297Z,2468.00
2018-06-02T15:32:56.215Z,2480.00
2018-06-02T15:34:48.999Z,2508.00
2018-06-02T15:35:48.939Z,2588.00
2018-06-02T15:37:41.716Z,2532.00
2018-06-02T15:38:41.661Z,2448.00
2018-06-02T15:40:34.466Z,2024.00
2018-06-02T15:41:34.379Z,1952.00
2018-06-02T15:43:27.200Z,1988.00
2018-06-02T15:44:27.102Z,1928.00
2018-06-02T15:46:19.902Z,1528.00
2018-06-02T15:47:19.831Z,1396.00
2018-06-02T15:49:12.604Z,1392.00
2018-06-02T15:50:12.555Z,1492.00
2018-06-02T15:52:05.359Z,2164.00
2018-06-02T15:53:05.285Z,2444.00
2018-06-02T15:54:58.073Z,2468.00
2018-06-02T15:55:58.004Z,2476.00
2018-06-02T15:57:50.794Z,2620.00
2018-06-02T15:58:50.751Z,2412.00
2018-06-02T16:00:43.525Z,2456.00
2018-06-02T16:01:43.462Z,2492.00
2018-06-02T16:03:36.250Z,2308.00
2018-06-02T16:04:36.193Z,2308.00
2018-06-02T16:06:28.989Z,2300.00
2018-06-02T16:07:28.912Z,2248.00
2018-06-02T16:09:21.695Z,2024.00
2018-06-02T16:10:21.644Z,1944.00
2018-06-02T16:12:14.431Z,1880.00
2018-06-02T16:13:14.362Z,1816.00
2018-06-02T16:15:07.168Z,1740.00
2018-06-02T16:16:07.097Z,1712.00
2018-06-02T16:17:59.881Z,1800.00
2018-06-02T16:18:59.814Z,1828.00
2018-06-02T16:20:52.611Z,1904.00
2018-06-02T16:21:52.559Z,1864.00
2018-06-02T16:23:45.327Z,1928.00
2018-06-02T16:24:45.261Z,1968.00
2018-06-02T16:26:38.063Z,1996.00
2018-06-02T16:27:37.984Z,2024.00
2018-06-02T16:29:30.795Z,2144.00
2018-06-02T16:30:30.745Z,2140.00
2018-06-02T16:32:23.536Z,2192.00
2018-06-02T16:33:23.448Z,2144.00
2018-06-02T16:35:16.233Z,1928.00
2018-06-02T16:36:16.175Z,1888.00
2018-06-02T16:38:08.975Z,1924.00
2018-06-02T16:39:08.927Z,1832.00
2018-06-02T16:41:01.697Z,1640.00
2018-06-02T16:42:01.627Z,1540.00
2018-06-02T16:43:54.395Z,1424.00
2018-06-02T16:44:54.343Z,1372.00
2018-06-02T16:46:47.131Z,1324.00
2018-06-02T16:47:47.064Z,1344.00
2018-06-02T16:49:39.859Z,1332.00
2018-06-02T16:50:39.831Z,1360.00
2018-06-02T16:52:32.601Z,1480.00
2018-06-02T16:53:32.531Z,1504.00
2018-06-02T16:55:25.361Z,1440.00
2018-06-02T16:56:25.250Z,1428.00
2018-06-02T16:58:18.051Z,1424.00
2018-06-02T16:59:17.974Z,1428.00
2018-06-02T17:01:10.764Z,1412.00
2018-06-02T17:02:10.694Z,1416.00
2018-06-02T17:04:03.508Z,1400.00
2018-06-02T17:05:03.415Z,1380.00
2018-06-02T17:06:56.256Z,1284.00
2018-06-02T17:07:56.165Z,1260.00
2018-06-02T17:09:49.017Z,1216.00
2018-06-02T17:10:48.952Z,1224.00
2018-06-02T17:12:41.802Z,1196.00
2018-06-02T17:13:41.690Z,1208.00
2018-06-02T17:15:34.481Z,1152.00
2018-06-02T17:16:34.402Z,1148.00
2018-06-02T17:18:27.207Z,1056.00
2018-06-02T17:19:27.125Z,960.00
2018-06-02T17:21:19.911Z,864.00
2018-06-02T17:22:19.855Z,816.00
2018-06-02T17:24:12.642Z,748.00
2018-06-02T17:25:12.587Z,696.00
2018-06-02T17:27:05.373Z,548.00
2018-06-02T17:28:05.296Z,480.00
2018-06-02T17:29:58.086Z,456.00
2018-06-02T17:30:58.020Z,456.00
2018-06-02T17:32:50.814Z,480.00
2018-06-02T17:33:50.753Z,528.00
2018-06-02T17:35:43.544Z,652.00
2018-06-02T17:36:43.460Z,688.00
2018-06-02T17:38:36.258Z,696.00
2018-06-02T17:39:36.190Z,684.00
2018-06-02T17:41:28.982Z,636.00
2018-06-02T17:42:28.920Z,604.00
2018-06-02T17:44:21.691Z,548.00